Southwood, Indiana
Current Conditions -  °F | °C
As of 10:53 PM on Wednesday 17 Dec 2014 (Local Time) from KHUF Reporting Station
Overcast Overcast  
Wind Chill: 18°   Ceiling: 1500
Heat Index: 25°   Visibility: 9mi
Dew Point: 19°   Wind: 6mph
Humidity: 78%   Direction: 20°NNE
Pressure: 30.32"   Gusts: NA
Location:  39.3587°N, 87.4056°W
Report Text: KHUF 180353Z 02005KT 9SM OVC015 M04/M07 A3032 RMK AO2 SLP274 T10391072
Loading
Personal Weather Stations






























Interactive Weather Map New forecast layout! Learn more

10-Day Weather Forecast

Advertisements
Track Severe Weather on mobile